sensor_id;sensor_type;location;lat;lon;timestamp;P1;durP1;ratioP1;P2;durP2;ratioP2
10717;SDS011;13513;42.700;23.124;2023-04-23T00:02:26;8.33;;;5.10;;
10717;SDS011;13513;42.700;23.124;2023-04-23T00:05:00;7.57;;;4.90;;
10717;SDS011;13513;42.700;23.124;2023-04-23T00:07:31;7.57;;;4.90;;
10717;SDS011;13513;42.700;23.124;2023-04-23T00:10:03;24.97;;;12.17;;
10717;SDS011;13513;42.700;23.124;2023-04-23T00:12:34;126.73;;;47.83;;
10717;SDS011;13513;42.700;23.124;2023-04-23T00:15:05;129.70;;;50.57;;
10717;SDS011;13513;42.700;23.124;2023-04-23T00:17:36;16.47;;;8.07;;
10717;SDS011;13513;42.700;23.124;2023-04-23T00:20:09;62.00;;;24.97;;
10717;SDS011;13513;42.700;23.124;2023-04-23T00:22:41;18.37;;;9.57;;
10717;SDS011;13513;42.700;23.124;2023-04-23T00:25:11;8.77;;;4.97;;
10717;SDS011;13513;42.700;23.124;2023-04-23T00:27:41;9.67;;;4.63;;
10717;SDS011;13513;42.700;23.124;2023-04-23T00:30:12;5.13;;;4.63;;
10717;SDS011;13513;42.700;23.124;2023-04-23T00:32:42;7.53;;;5.90;;
10717;SDS011;13513;42.700;23.124;2023-04-23T00:35:13;10.80;;;7.40;;
10717;SDS011;13513;42.700;23.124;2023-04-23T00:37:45;9.83;;;6.43;;
10717;SDS011;13513;42.700;23.124;2023-04-23T00:40:19;8.83;;;5.70;;
10717;SDS011;13513;42.700;23.124;2023-04-23T00:42:51;7.00;;;5.27;;
10717;SDS011;13513;42.700;23.124;2023-04-23T00:45:23;5.90;;;4.77;;
10717;SDS011;13513;42.700;23.124;2023-04-23T00:47:53;9.47;;;6.00;;
10717;SDS011;13513;42.700;23.124;2023-04-23T00:50:24;7.53;;;5.00;;
10717;SDS011;13513;42.700;23.124;2023-04-23T00:52:54;7.40;;;5.20;;
10717;SDS011;13513;42.700;23.124;2023-04-23T00:55:25;7.43;;;5.83;;
10717;SDS011;13513;42.700;23.124;2023-04-23T00:57:56;7.83;;;5.37;;
10717;SDS011;13513;42.700;23.124;2023-04-23T01:00:26;6.03;;;5.17;;
10717;SDS011;13513;42.700;23.124;2023-04-23T01:02:58;6.40;;;5.13;;
10717;SDS011;13513;42.700;23.124;2023-04-23T01:05:28;6.30;;;5.47;;
10717;SDS011;13513;42.700;23.124;2023-04-23T01:07:59;7.87;;;5.70;;
10717;SDS011;13513;42.700;23.124;2023-04-23T01:10:30;6.90;;;5.20;;
10717;SDS011;13513;42.700;23.124;2023-04-23T01:13:02;6.83;;;5.60;;
10717;SDS011;13513;42.700;23.124;2023-04-23T01:15:34;8.87;;;5.80;;
10717;SDS011;13513;42.700;23.124;2023-04-23T01:18:05;6.43;;;5.33;;
10717;SDS011;13513;42.700;23.124;2023-04-23T01:20:36;7.83;;;6.17;;
10717;SDS011;13513;42.700;23.124;2023-04-23T01:23:09;7.73;;;6.90;;
10717;SDS011;13513;42.700;23.124;2023-04-23T01:25:40;11.93;;;7.67;;
10717;SDS011;13513;42.700;23.124;2023-04-23T01:28:12;7.90;;;6.90;;
10717;SDS011;13513;42.700;23.124;2023-04-23T01:30:42;7.23;;;5.50;;
10717;SDS011;13513;42.700;23.124;2023-04-23T01:33:13;5.70;;;5.10;;
10717;SDS011;13513;42.700;23.124;2023-04-23T01:35:44;10.27;;;5.70;;
10717;SDS011;13513;42.700;23.124;2023-04-23T01:38:15;7.90;;;5.80;;
10717;SDS011;13513;42.700;23.124;2023-04-23T01:40:47;8.93;;;5.97;;
10717;SDS011;13513;42.700;23.124;2023-04-23T01:43:18;9.10;;;5.73;;
10717;SDS011;13513;42.700;23.124;2023-04-23T01:45:50;7.80;;;6.07;;
10717;SDS011;13513;42.700;23.124;2023-04-23T01:48:23;10.73;;;7.43;;
10717;SDS011;13513;42.700;23.124;2023-04-23T01:50:53;8.50;;;7.50;;
10717;SDS011;13513;42.700;23.124;2023-04-23T01:53:25;9.93;;;6.67;;
10717;SDS011;13513;42.700;23.124;2023-04-23T01:55:57;9.27;;;6.63;;
10717;SDS011;13513;42.700;23.124;2023-04-23T01:58:28;7.07;;;6.00;;
10717;SDS011;13513;42.700;23.124;2023-04-23T02:00:59;10.53;;;6.37;;
10717;SDS011;13513;42.700;23.124;2023-04-23T02:03:29;8.60;;;6.10;;
10717;SDS011;13513;42.700;23.124;2023-04-23T02:06:00;9.93;;;6.10;;
10717;SDS011;13513;42.700;23.124;2023-04-23T02:08:30;10.93;;;6.17;;
10717;SDS011;13513;42.700;23.124;2023-04-23T02:11:02;10.57;;;6.00;;
10717;SDS011;13513;42.700;23.124;2023-04-23T02:13:36;9.13;;;6.17;;
10717;SDS011;13513;42.700;23.124;2023-04-23T02:16:08;7.73;;;5.97;;
10717;SDS011;13513;42.700;23.124;2023-04-23T02:18:39;8.90;;;5.67;;
10717;SDS011;13513;42.700;23.124;2023-04-23T02:21:10;6.13;;;5.37;;
10717;SDS011;13513;42.700;23.124;2023-04-23T02:23:40;6.53;;;5.50;;
10717;SDS011;13513;42.700;23.124;2023-04-23T02:26:10;10.97;;;5.37;;
10717;SDS011;13513;42.700;23.124;2023-04-23T02:28:41;7.17;;;5.40;;
10717;SDS011;13513;42.700;23.124;2023-04-23T02:31:11;5.53;;;4.90;;
10717;SDS011;13513;42.700;23.124;2023-04-23T02:33:42;6.70;;;5.40;;
10717;SDS011;13513;42.700;23.124;2023-04-23T02:36:13;6.43;;;4.80;;
10717;SDS011;13513;42.700;23.124;2023-04-23T02:38:45;6.60;;;5.23;;
10717;SDS011;13513;42.700;23.124;2023-04-23T02:41:16;6.30;;;5.23;;
10717;SDS011;13513;42.700;23.124;2023-04-23T02:43:47;7.83;;;5.90;;
10717;SDS011;13513;42.700;23.124;2023-04-23T02:46:18;8.30;;;6.03;;
10717;SDS011;13513;42.700;23.124;2023-04-23T02:48:49;6.80;;;6.10;;
10717;SDS011;13513;42.700;23.124;2023-04-23T02:51:23;7.27;;;6.20;;
10717;SDS011;13513;42.700;23.124;2023-04-23T02:53:54;8.07;;;6.00;;
10717;SDS011;13513;42.700;23.124;2023-04-23T02:56:26;9.33;;;6.80;;
10717;SDS011;13513;42.700;23.124;2023-04-23T02:58:57;11.53;;;6.90;;
10717;SDS011;13513;42.700;23.124;2023-04-23T03:01:27;7.87;;;6.63;;
10717;SDS011;13513;42.700;23.124;2023-04-23T03:03:58;12.53;;;6.77;;
10717;SDS011;13513;42.700;23.124;2023-04-23T03:06:30;10.03;;;7.20;;
10717;SDS011;13513;42.700;23.124;2023-04-23T03:09:01;10.07;;;6.60;;
10717;SDS011;13513;42.700;23.124;2023-04-23T03:11:32;12.00;;;7.30;;
10717;SDS011;13513;42.700;23.124;2023-04-23T03:14:03;13.20;;;7.30;;
10717;SDS011;13513;42.700;23.124;2023-04-23T03:16:34;11.17;;;7.30;;
10717;SDS011;13513;42.700;23.124;2023-04-23T03:19:05;11.67;;;7.50;;
10717;SDS011;13513;42.700;23.124;2023-04-23T03:21:36;10.43;;;7.43;;
10717;SDS011;13513;42.700;23.124;2023-04-23T03:24:09;10.10;;;7.43;;
10717;SDS011;13513;42.700;23.124;2023-04-23T03:26:39;12.97;;;7.40;;
10717;SDS011;13513;42.700;23.124;2023-04-23T03:29:10;9.17;;;7.00;;
10717;SDS011;13513;42.700;23.124;2023-04-23T03:31:41;10.33;;;6.80;;
10717;SDS011;13513;42.700;23.124;2023-04-23T03:34:12;11.97;;;7.00;;
10717;SDS011;13513;42.700;23.124;2023-04-23T03:36:43;8.73;;;7.07;;
10717;SDS011;13513;42.700;23.124;2023-04-23T03:39:14;11.43;;;7.27;;
10717;SDS011;13513;42.700;23.124;2023-04-23T03:41:45;11.07;;;7.40;;
10717;SDS011;13513;42.700;23.124;2023-04-23T03:44:15;11.17;;;7.63;;
10717;SDS011;13513;42.700;23.124;2023-04-23T03:46:46;8.83;;;7.80;;
10717;SDS011;13513;42.700;23.124;2023-04-23T03:49:17;14.03;;;7.00;;
10717;SDS011;13513;42.700;23.124;2023-04-23T03:51:48;6.23;;;5.40;;
10717;SDS011;13513;42.700;23.124;2023-04-23T03:54:19;8.50;;;6.00;;
10717;SDS011;13513;42.700;23.124;2023-04-23T03:56:50;7.40;;;6.10;;
10717;SDS011;13513;42.700;23.124;2023-04-23T03:59:22;15.90;;;11.53;;
10717;SDS011;13513;42.700;23.124;2023-04-23T04:01:53;10.10;;;7.90;;
10717;SDS011;13513;42.700;23.124;2023-04-23T04:04:24;9.20;;;6.40;;
10717;SDS011;13513;42.700;23.124;2023-04-23T04:06:55;8.47;;;6.10;;
10717;SDS011;13513;42.700;23.124;2023-04-23T04:09:27;9.00;;;5.90;;
10717;SDS011;13513;42.700;23.124;2023-04-23T04:11:57;7.30;;;6.33;;
10717;SDS011;13513;42.700;23.124;2023-04-23T04:14:29;10.27;;;5.40;;
10717;SDS011;13513;42.700;23.124;2023-04-23T04:17:00;7.37;;;5.40;;
10717;SDS011;13513;42.700;23.124;2023-04-23T04:19:31;7.53;;;5.17;;
10717;SDS011;13513;42.700;23.124;2023-04-23T04:22:02;6.93;;;5.63;;
10717;SDS011;13513;42.700;23.124;2023-04-23T04:24:32;7.80;;;7.00;;
10717;SDS011;13513;42.700;23.124;2023-04-23T04:27:03;9.33;;;7.00;;
10717;SDS011;13513;42.700;23.124;2023-04-23T04:29:34;12.10;;;8.00;;
10717;SDS011;13513;42.700;23.124;2023-04-23T04:32:06;11.77;;;7.80;;
10717;SDS011;13513;42.700;23.124;2023-04-23T04:34:37;8.40;;;7.50;;
10717;SDS011;13513;42.700;23.124;2023-04-23T04:37:08;8.33;;;7.43;;
10717;SDS011;13513;42.700;23.124;2023-04-23T04:39:37;8.93;;;7.13;;
10717;SDS011;13513;42.700;23.124;2023-04-23T04:42:08;8.70;;;7.10;;
10717;SDS011;13513;42.700;23.124;2023-04-23T04:44:39;8.67;;;6.67;;
10717;SDS011;13513;42.700;23.124;2023-04-23T04:47:11;12.77;;;5.60;;
10717;SDS011;13513;42.700;23.124;2023-04-23T04:49:42;9.95;;;5.72;;
10717;SDS011;13513;42.700;23.124;2023-04-23T04:52:13;7.35;;;5.87;;
10717;SDS011;13513;42.700;23.124;2023-04-23T04:54:44;9.10;;;6.15;;
10717;SDS011;13513;42.700;23.124;2023-04-23T04:57:15;9.33;;;6.37;;
10717;SDS011;13513;42.700;23.124;2023-04-23T04:59:49;8.23;;;5.65;;
10717;SDS011;13513;42.700;23.124;2023-04-23T05:02:20;10.48;;;6.17;;
10717;SDS011;13513;42.700;23.124;2023-04-23T05:04:51;8.88;;;6.42;;
10717;SDS011;13513;42.700;23.124;2023-04-23T05:07:22;7.92;;;6.42;;
10717;SDS011;13513;42.700;23.124;2023-04-23T05:09:53;11.00;;;7.58;;
10717;SDS011;13513;42.700;23.124;2023-04-23T05:12:24;9.73;;;8.73;;
10717;SDS011;13513;42.700;23.124;2023-04-23T05:14:54;7.00;;;6.30;;
10717;SDS011;13513;42.700;23.124;2023-04-23T05:17:24;9.97;;;6.80;;
10717;SDS011;13513;42.700;23.124;2023-04-23T05:19:54;9.05;;;7.12;;
10717;SDS011;13513;42.700;23.124;2023-04-23T05:22:26;6.80;;;6.10;;
10717;SDS011;13513;42.700;23.124;2023-04-23T05:24:57;8.40;;;6.42;;
10717;SDS011;13513;42.700;23.124;2023-04-23T05:27:27;8.38;;;6.45;;
10717;SDS011;13513;42.700;23.124;2023-04-23T05:29:57;14.53;;;7.08;;
10717;SDS011;13513;42.700;23.124;2023-04-23T05:32:30;10.35;;;7.60;;
10717;SDS011;13513;42.700;23.124;2023-04-23T05:35:01;7.50;;;6.42;;
10717;SDS011;13513;42.700;23.124;2023-04-23T05:37:32;8.20;;;6.33;;
10717;SDS011;13513;42.700;23.124;2023-04-23T05:40:02;10.85;;;6.53;;
10717;SDS011;13513;42.700;23.124;2023-04-23T05:42:35;8.98;;;6.70;;
10717;SDS011;13513;42.700;23.124;2023-04-23T05:45:07;7.78;;;6.50;;
10717;SDS011;13513;42.700;23.124;2023-04-23T05:47:38;8.75;;;7.85;;
10717;SDS011;13513;42.700;23.124;2023-04-23T05:50:09;8.73;;;7.70;;
10717;SDS011;13513;42.700;23.124;2023-04-23T05:52:40;9.38;;;8.10;;
10717;SDS011;13513;42.700;23.124;2023-04-23T05:55:11;9.35;;;8.35;;
10717;SDS011;13513;42.700;23.124;2023-04-23T05:57:42;10.68;;;9.43;;
10717;SDS011;13513;42.700;23.124;2023-04-23T06:00:13;11.97;;;8.90;;
10717;SDS011;13513;42.700;23.124;2023-04-23T06:02:44;14.15;;;9.20;;
10717;SDS011;13513;42.700;23.124;2023-04-23T06:05:14;9.73;;;8.73;;
10717;SDS011;13513;42.700;23.124;2023-04-23T06:07:45;14.53;;;8.08;;
10717;SDS011;13513;42.700;23.124;2023-04-23T06:10:16;11.63;;;8.45;;
10717;SDS011;13513;42.700;23.124;2023-04-23T06:12:47;12.37;;;7.87;;
10717;SDS011;13513;42.700;23.124;2023-04-23T06:15:18;9.88;;;7.75;;
10717;SDS011;13513;42.700;23.124;2023-04-23T06:17:49;9.18;;;7.50;;
10717;SDS011;13513;42.700;23.124;2023-04-23T06:20:20;11.85;;;7.85;;
10717;SDS011;13513;42.700;23.124;2023-04-23T06:22:51;10.98;;;7.50;;
10717;SDS011;13513;42.700;23.124;2023-04-23T06:25:22;9.95;;;8.18;;
10717;SDS011;13513;42.700;23.124;2023-04-23T06:27:53;10.35;;;8.08;;
10717;SDS011;13513;42.700;23.124;2023-04-23T06:30:24;8.93;;;7.75;;
10717;SDS011;13513;42.700;23.124;2023-04-23T06:32:54;9.28;;;7.35;;
10717;SDS011;13513;42.700;23.124;2023-04-23T06:35:26;8.33;;;7.47;;
10717;SDS011;13513;42.700;23.124;2023-04-23T06:37:57;7.92;;;7.10;;
10717;SDS011;13513;42.700;23.124;2023-04-23T06:40:29;9.13;;;6.55;;
10717;SDS011;13513;42.700;23.124;2023-04-23T06:43:03;8.58;;;6.30;;
10717;SDS011;13513;42.700;23.124;2023-04-23T06:45:34;8.48;;;7.00;;
10717;SDS011;13513;42.700;23.124;2023-04-23T06:48:05;9.83;;;6.80;;
10717;SDS011;13513;42.700;23.124;2023-04-23T06:50:36;7.17;;;6.15;;
10717;SDS011;13513;42.700;23.124;2023-04-23T06:53:07;9.20;;;6.65;;
10717;SDS011;13513;42.700;23.124;2023-04-23T06:55:37;8.23;;;6.30;;
10717;SDS011;13513;42.700;23.124;2023-04-23T06:58:08;8.78;;;6.40;;
10717;SDS011;13513;42.700;23.124;2023-04-23T07:00:38;9.45;;;7.95;;
10717;SDS011;13513;42.700;23.124;2023-04-23T07:03:10;12.03;;;8.35;;
10717;SDS011;13513;42.700;23.124;2023-04-23T07:05:40;12.35;;;7.33;;
10717;SDS011;13513;42.700;23.124;2023-04-23T07:08:11;8.35;;;6.87;;
10717;SDS011;13513;42.700;23.124;2023-04-23T07:10:42;8.88;;;7.05;;
10717;SDS011;13513;42.700;23.124;2023-04-23T07:13:14;10.00;;;6.85;;
10717;SDS011;13513;42.700;23.124;2023-04-23T07:15:44;12.15;;;7.78;;
10717;SDS011;13513;42.700;23.124;2023-04-23T07:18:14;8.88;;;7.62;;
10717;SDS011;13513;42.700;23.124;2023-04-23T07:20:45;9.50;;;7.40;;
10717;SDS011;13513;42.700;23.124;2023-04-23T07:23:16;17.23;;;7.90;;
10717;SDS011;13513;42.700;23.124;2023-04-23T07:25:47;11.83;;;7.62;;
10717;SDS011;13513;42.700;23.124;2023-04-23T07:28:17;9.90;;;7.58;;
10717;SDS011;13513;42.700;23.124;2023-04-23T07:30:48;8.85;;;7.20;;
10717;SDS011;13513;42.700;23.124;2023-04-23T07:33:19;10.32;;;7.75;;
10717;SDS011;13513;42.700;23.124;2023-04-23T07:35:50;11.25;;;7.30;;
10717;SDS011;13513;42.700;23.124;2023-04-23T07:38:21;10.63;;;8.68;;
10717;SDS011;13513;42.700;23.124;2023-04-23T07:40:52;8.35;;;7.12;;
10717;SDS011;13513;42.700;23.124;2023-04-23T07:43:23;16.40;;;7.87;;
10717;SDS011;13513;42.700;23.124;2023-04-23T07:45:53;10.80;;;7.55;;
10717;SDS011;13513;42.700;23.124;2023-04-23T07:48:24;11.20;;;7.85;;
10717;SDS011;13513;42.700;23.124;2023-04-23T07:50:55;12.13;;;7.28;;
10717;SDS011;13513;42.700;23.124;2023-04-23T07:53:26;14.25;;;7.90;;
10717;SDS011;13513;42.700;23.124;2023-04-23T07:55:57;8.30;;;7.50;;
10717;SDS011;13513;42.700;23.124;2023-04-23T07:58:29;9.83;;;7.90;;
10717;SDS011;13513;42.700;23.124;2023-04-23T08:01:01;10.00;;;8.45;;
10717;SDS011;13513;42.700;23.124;2023-04-23T08:03:33;12.82;;;8.45;;
10717;SDS011;13513;42.700;23.124;2023-04-23T08:06:04;9.50;;;7.80;;
10717;SDS011;13513;42.700;23.124;2023-04-23T08:08:35;13.95;;;7.87;;
10717;SDS011;13513;42.700;23.124;2023-04-23T08:11:06;10.70;;;8.13;;
10717;SDS011;13513;42.700;23.124;2023-04-23T08:13:37;9.53;;;7.90;;
10717;SDS011;13513;42.700;23.124;2023-04-23T08:16:07;10.13;;;7.80;;
10717;SDS011;13513;42.700;23.124;2023-04-23T08:18:38;10.35;;;7.97;;
10717;SDS011;13513;42.700;23.124;2023-04-23T08:21:09;9.35;;;7.08;;
10717;SDS011;13513;42.700;23.124;2023-04-23T08:23:40;9.13;;;7.58;;
10717;SDS011;13513;42.700;23.124;2023-04-23T08:26:10;11.60;;;7.42;;
10717;SDS011;13513;42.700;23.124;2023-04-23T08:28:41;10.90;;;7.30;;
10717;SDS011;13513;42.700;23.124;2023-04-23T08:31:13;9.65;;;7.40;;
10717;SDS011;13513;42.700;23.124;2023-04-23T08:33:44;8.98;;;7.78;;
10717;SDS011;13513;42.700;23.124;2023-04-23T08:36:15;10.88;;;7.87;;
10717;SDS011;13513;42.700;23.124;2023-04-23T08:38:46;8.15;;;7.20;;
10717;SDS011;13513;42.700;23.124;2023-04-23T08:41:17;7.30;;;6.15;;
10717;SDS011;13513;42.700;23.124;2023-04-23T08:43:56;9.33;;;7.22;;
10717;SDS011;13513;42.700;23.124;2023-04-23T08:46:23;8.65;;;6.33;;
10717;SDS011;13513;42.700;23.124;2023-04-23T08:48:55;10.08;;;6.90;;
10717;SDS011;13513;42.700;23.124;2023-04-23T08:51:29;7.85;;;6.95;;
10717;SDS011;13513;42.700;23.124;2023-04-23T08:54:01;7.95;;;7.15;;
10717;SDS011;13513;42.700;23.124;2023-04-23T08:56:36;8.50;;;6.85;;
10717;SDS011;13513;42.700;23.124;2023-04-23T08:59:07;10.45;;;6.22;;
10717;SDS011;13513;42.700;23.124;2023-04-23T09:01:39;9.00;;;6.67;;
10717;SDS011;13513;42.700;23.124;2023-04-23T09:04:10;9.23;;;6.67;;
10717;SDS011;13513;42.700;23.124;2023-04-23T09:06:40;7.80;;;6.25;;
10717;SDS011;13513;42.700;23.124;2023-04-23T09:09:11;7.97;;;6.30;;
10717;SDS011;13513;42.700;23.124;2023-04-23T09:11:44;7.90;;;5.67;;
10717;SDS011;13513;42.700;23.124;2023-04-23T09:14:16;9.73;;;5.78;;
10717;SDS011;13513;42.700;23.124;2023-04-23T09:16:47;8.48;;;5.78;;
10717;SDS011;13513;42.700;23.124;2023-04-23T09:19:18;8.90;;;5.53;;
10717;SDS011;13513;42.700;23.124;2023-04-23T09:21:49;7.67;;;5.47;;
10717;SDS011;13513;42.700;23.124;2023-04-23T09:24:23;9.03;;;5.50;;
10717;SDS011;13513;42.700;23.124;2023-04-23T09:26:56;8.18;;;4.78;;
10717;SDS011;13513;42.700;23.124;2023-04-23T09:29:30;5.62;;;5.12;;
10717;SDS011;13513;42.700;23.124;2023-04-23T09:32:05;16.85;;;5.67;;
10717;SDS011;13513;42.700;23.124;2023-04-23T09:34:36;7.60;;;4.60;;
10717;SDS011;13513;42.700;23.124;2023-04-23T09:37:07;5.58;;;4.62;;
10717;SDS011;13513;42.700;23.124;2023-04-23T09:39:38;5.83;;;4.95;;
10717;SDS011;13513;42.700;23.124;2023-04-23T09:42:09;7.45;;;5.40;;
10717;SDS011;13513;42.700;23.124;2023-04-23T09:44:40;6.58;;;4.72;;
10717;SDS011;13513;42.700;23.124;2023-04-23T09:47:11;6.75;;;5.30;;
10717;SDS011;13513;42.700;23.124;2023-04-23T09:49:45;8.15;;;5.20;;
10717;SDS011;13513;42.700;23.124;2023-04-23T09:52:16;6.87;;;5.45;;
10717;SDS011;13513;42.700;23.124;2023-04-23T09:54:47;8.68;;;5.08;;
10717;SDS011;13513;42.700;23.124;2023-04-23T09:57:18;6.95;;;5.25;;
10717;SDS011;13513;42.700;23.124;2023-04-23T09:59:49;7.45;;;5.20;;
10717;SDS011;13513;42.700;23.124;2023-04-23T10:02:26;6.10;;;5.20;;
10717;SDS011;13513;42.700;23.124;2023-04-23T10:04:57;8.63;;;5.42;;
10717;SDS011;13513;42.700;23.124;2023-04-23T10:07:28;5.92;;;5.33;;
10717;SDS011;13513;42.700;23.124;2023-04-23T10:10:01;10.85;;;5.30;;
10717;SDS011;13513;42.700;23.124;2023-04-23T10:12:33;6.03;;;5.42;;
10717;SDS011;13513;42.700;23.124;2023-04-23T10:15:06;7.92;;;5.17;;
10717;SDS011;13513;42.700;23.124;2023-04-23T10:17:38;5.92;;;5.20;;
10717;SDS011;13513;42.700;23.124;2023-04-23T10:20:08;9.15;;;5.47;;
10717;SDS011;13513;42.700;23.124;2023-04-23T10:22:40;7.70;;;4.85;;
10717;SDS011;13513;42.700;23.124;2023-04-23T10:25:13;7.37;;;4.85;;
10717;SDS011;13513;42.700;23.124;2023-04-23T10:27:45;7.08;;;5.03;;
10717;SDS011;13513;42.700;23.124;2023-04-23T10:30:17;9.08;;;5.72;;
10717;SDS011;13513;42.700;23.124;2023-04-23T10:32:48;6.20;;;4.95;;
10717;SDS011;13513;42.700;23.124;2023-04-23T10:35:19;6.50;;;5.00;;
10717;SDS011;13513;42.700;23.124;2023-04-23T10:37:50;9.00;;;5.33;;
10717;SDS011;13513;42.700;23.124;2023-04-23T10:40:23;9.00;;;5.83;;
10717;SDS011;13513;42.700;23.124;2023-04-23T10:42:53;5.37;;;4.87;;
10717;SDS011;13513;42.700;23.124;2023-04-23T10:45:25;7.17;;;5.47;;
10717;SDS011;13513;42.700;23.124;2023-04-23T10:47:57;6.62;;;4.78;;
10717;SDS011;13513;42.700;23.124;2023-04-23T10:50:29;5.95;;;4.78;;
10717;SDS011;13513;42.700;23.124;2023-04-23T10:53:01;7.85;;;4.78;;
10717;SDS011;13513;42.700;23.124;2023-04-23T10:55:32;8.33;;;4.87;;
10717;SDS011;13513;42.700;23.124;2023-04-23T10:58:04;7.33;;;5.35;;
10717;SDS011;13513;42.700;23.124;2023-04-23T11:00:45;5.00;;;4.42;;
10717;SDS011;13513;42.700;23.124;2023-04-23T11:03:36;5.75;;;4.62;;
10717;SDS011;13513;42.700;23.124;2023-04-23T11:06:13;7.37;;;4.70;;
10717;SDS011;13513;42.700;23.124;2023-04-23T11:08:51;6.35;;;4.05;;
10717;SDS011;13513;42.700;23.124;2023-04-23T11:11:38;5.37;;;4.22;;
10717;SDS011;13513;42.700;23.124;2023-04-23T11:14:10;6.12;;;3.83;;
10717;SDS011;13513;42.700;23.124;2023-04-23T11:16:41;5.92;;;4.30;;
10717;SDS011;13513;42.700;23.124;2023-04-23T11:19:12;4.50;;;4.10;;
10717;SDS011;13513;42.700;23.124;2023-04-23T11:21:57;5.08;;;3.98;;
10717;SDS011;13513;42.700;23.124;2023-04-23T11:24:33;5.58;;;4.78;;
10717;SDS011;13513;42.700;23.124;2023-04-23T11:27:11;5.80;;;4.45;;
10717;SDS011;13513;42.700;23.124;2023-04-23T11:29:43;4.80;;;4.00;;
10717;SDS011;13513;42.700;23.124;2023-04-23T11:32:14;6.28;;;4.55;;
10717;SDS011;13513;42.700;23.124;2023-04-23T11:34:48;7.67;;;4.15;;
10717;SDS011;13513;42.700;23.124;2023-04-23T11:37:19;5.83;;;4.10;;
10717;SDS011;13513;42.700;23.124;2023-04-23T11:39:50;9.03;;;4.20;;
10717;SDS011;13513;42.700;23.124;2023-04-23T11:42:21;4.55;;;3.80;;
10717;SDS011;13513;42.700;23.124;2023-04-23T11:44:51;4.65;;;3.60;;
10717;SDS011;13513;42.700;23.124;2023-04-23T11:47:22;7.62;;;3.92;;
10717;SDS011;13513;42.700;23.124;2023-04-23T11:49:54;3.60;;;3.10;;
10717;SDS011;13513;42.700;23.124;2023-04-23T11:52:25;4.00;;;3.40;;
10717;SDS011;13513;42.700;23.124;2023-04-23T11:54:55;4.80;;;3.22;;
10717;SDS011;13513;42.700;23.124;2023-04-23T11:57:27;4.80;;;3.27;;
10717;SDS011;13513;42.700;23.124;2023-04-23T11:59:59;4.00;;;3.22;;
10717;SDS011;13513;42.700;23.124;2023-04-23T12:02:30;5.00;;;3.10;;
10717;SDS011;13513;42.700;23.124;2023-04-23T12:05:03;3.00;;;2.80;;
10717;SDS011;13513;42.700;23.124;2023-04-23T12:07:35;5.03;;;2.98;;
10717;SDS011;13513;42.700;23.124;2023-04-23T12:10:07;6.22;;;3.83;;
10717;SDS011;13513;42.700;23.124;2023-04-23T12:12:37;5.00;;;3.20;;
10717;SDS011;13513;42.700;23.124;2023-04-23T12:15:08;4.22;;;3.02;;
10717;SDS011;13513;42.700;23.124;2023-04-23T12:17:39;5.65;;;3.55;;
10717;SDS011;13513;42.700;23.124;2023-04-23T12:20:10;5.83;;;3.45;;
10717;SDS011;13513;42.700;23.124;2023-04-23T12:22:41;4.97;;;3.27;;
10717;SDS011;13513;42.700;23.124;2023-04-23T12:25:12;3.90;;;3.50;;
10717;SDS011;13513;42.700;23.124;2023-04-23T12:27:43;11.25;;;3.77;;
10717;SDS011;13513;42.700;23.124;2023-04-23T12:30:13;8.30;;;3.85;;
10717;SDS011;13513;42.700;23.124;2023-04-23T12:32:44;4.10;;;3.70;;
10717;SDS011;13513;42.700;23.124;2023-04-23T12:35:15;5.20;;;3.40;;
10717;SDS011;13513;42.700;23.124;2023-04-23T12:37:45;8.38;;;5.10;;
10717;SDS011;13513;42.700;23.124;2023-04-23T12:40:16;6.15;;;3.62;;
10717;SDS011;13513;42.700;23.124;2023-04-23T12:42:47;5.72;;;3.27;;
10717;SDS011;13513;42.700;23.124;2023-04-23T12:45:18;5.20;;;2.70;;
10717;SDS011;13513;42.700;23.124;2023-04-23T12:47:49;3.35;;;2.60;;
10717;SDS011;13513;42.700;23.124;2023-04-23T12:50:21;4.75;;;2.95;;
10717;SDS011;13513;42.700;23.124;2023-04-23T12:52:52;3.05;;;2.80;;
10717;SDS011;13513;42.700;23.124;2023-04-23T12:55:22;4.90;;;3.12;;
10717;SDS011;13513;42.700;23.124;2023-04-23T12:57:52;4.70;;;2.90;;
10717;SDS011;13513;42.700;23.124;2023-04-23T13:00:23;3.75;;;2.90;;
10717;SDS011;13513;42.700;23.124;2023-04-23T13:02:55;3.83;;;2.87;;
10717;SDS011;13513;42.700;23.124;2023-04-23T13:05:26;3.98;;;2.75;;
10717;SDS011;13513;42.700;23.124;2023-04-23T13:07:57;3.00;;;2.70;;
10717;SDS011;13513;42.700;23.124;2023-04-23T13:10:28;5.53;;;2.92;;
10717;SDS011;13513;42.700;23.124;2023-04-23T13:12:58;4.15;;;2.70;;
10717;SDS011;13513;42.700;23.124;2023-04-23T13:15:29;4.12;;;2.70;;
10717;SDS011;13513;42.700;23.124;2023-04-23T13:18:00;3.92;;;2.85;;
10717;SDS011;13513;42.700;23.124;2023-04-23T13:20:31;3.00;;;2.77;;
10717;SDS011;13513;42.700;23.124;2023-04-23T13:23:01;4.55;;;3.00;;
10717;SDS011;13513;42.700;23.124;2023-04-23T13:25:32;3.00;;;2.72;;
10717;SDS011;13513;42.700;23.124;2023-04-23T13:28:03;4.65;;;3.20;;
10717;SDS011;13513;42.700;23.124;2023-04-23T13:30:35;3.85;;;3.00;;
10717;SDS011;13513;42.700;23.124;2023-04-23T13:33:05;5.75;;;2.90;;
10717;SDS011;13513;42.700;23.124;2023-04-23T13:35:36;2.80;;;2.60;;
10717;SDS011;13513;42.700;23.124;2023-04-23T13:38:09;5.17;;;3.20;;
10717;SDS011;13513;42.700;23.124;2023-04-23T13:40:40;3.50;;;2.70;;
10717;SDS011;13513;42.700;23.124;2023-04-23T13:43:11;4.90;;;2.90;;
10717;SDS011;13513;42.700;23.124;2023-04-23T13:45:41;4.78;;;2.75;;
10717;SDS011;13513;42.700;23.124;2023-04-23T13:48:13;5.85;;;3.33;;
10717;SDS011;13513;42.700;23.124;2023-04-23T13:50:45;5.67;;;3.20;;
10717;SDS011;13513;42.700;23.124;2023-04-23T13:53:15;4.10;;;2.85;;
10717;SDS011;13513;42.700;23.124;2023-04-23T13:55:46;7.42;;;3.35;;
10717;SDS011;13513;42.700;23.124;2023-04-23T13:58:16;3.52;;;3.20;;
10717;SDS011;13513;42.700;23.124;2023-04-23T14:00:47;4.50;;;2.70;;
10717;SDS011;13513;42.700;23.124;2023-04-23T14:03:18;5.20;;;3.92;;
10717;SDS011;13513;42.700;23.124;2023-04-23T14:05:49;4.58;;;3.37;;
10717;SDS011;13513;42.700;23.124;2023-04-23T14:08:20;5.45;;;3.83;;
10717;SDS011;13513;42.700;23.124;2023-04-23T14:10:51;5.08;;;3.95;;
10717;SDS011;13513;42.700;23.124;2023-04-23T14:13:22;5.20;;;2.67;;
10717;SDS011;13513;42.700;23.124;2023-04-23T14:15:53;5.97;;;4.28;;
10717;SDS011;13513;42.700;23.124;2023-04-23T14:18:24;5.67;;;3.95;;
10717;SDS011;13513;42.700;23.124;2023-04-23T14:20:55;4.10;;;3.10;;
10717;SDS011;13513;42.700;23.124;2023-04-23T14:23:41;7.58;;;4.37;;
10717;SDS011;13513;42.700;23.124;2023-04-23T14:26:05;7.30;;;4.65;;
10717;SDS011;13513;42.700;23.124;2023-04-23T14:28:43;5.60;;;3.55;;
10717;SDS011;13513;42.700;23.124;2023-04-23T14:31:15;7.40;;;5.53;;
10717;SDS011;13513;42.700;23.124;2023-04-23T14:33:45;6.37;;;3.80;;
10717;SDS011;13513;42.700;23.124;2023-04-23T14:36:16;6.15;;;3.50;;
10717;SDS011;13513;42.700;23.124;2023-04-23T14:38:47;3.90;;;3.22;;
10717;SDS011;13513;42.700;23.124;2023-04-23T14:41:18;4.03;;;3.22;;
10717;SDS011;13513;42.700;23.124;2023-04-23T14:43:48;4.30;;;2.87;;
10717;SDS011;13513;42.700;23.124;2023-04-23T14:46:19;3.92;;;2.50;;
10717;SDS011;13513;42.700;23.124;2023-04-23T14:48:50;3.30;;;2.65;;
10717;SDS011;13513;42.700;23.124;2023-04-23T14:51:21;4.47;;;2.80;;
10717;SDS011;13513;42.700;23.124;2023-04-23T14:53:52;3.92;;;3.10;;
10717;SDS011;13513;42.700;23.124;2023-04-23T14:56:23;4.40;;;3.10;;